createdAt,value
2023-03-13T00:00:41.416Z,99952.84
2023-03-13T00:03:22.153Z,99945.69
2023-03-13T00:06:08.829Z,99949.66
2023-03-13T00:09:00.757Z,99957.19
2023-03-13T00:11:48.070Z,99942.13
2023-03-13T00:14:26.671Z,99943.50
2023-03-13T00:17:07.861Z,99946.50
2023-03-13T00:19:53.347Z,99947.53
2023-03-13T00:22:48.037Z,99955.53
2023-03-13T00:25:26.313Z,99956.31
2023-03-13T00:28:09.904Z,99958.53
2023-03-13T00:30:50.693Z,99954.84
2023-03-13T00:33:34.928Z,99954.00
2023-03-13T00:36:18.142Z,99959.88
2023-03-13T00:39:11.990Z,99949.53
2023-03-13T00:41:55.709Z,99945.06
2023-03-13T00:44:42.467Z,99941.22
2023-03-13T00:47:22.735Z,99937.19
2023-03-13T00:50:20.647Z,99942.72
2023-03-13T00:53:08.287Z,99948.88
2023-03-13T00:56:12.104Z,99938.91
2023-03-13T00:59:02.792Z,99921.34
2023-03-13T01:01:42.190Z,99923.97
2023-03-13T01:04:26.017Z,99927.00
2023-03-13T01:07:10.388Z,99929.84
2023-03-13T01:09:59.295Z,99923.88
2023-03-13T01:12:46.060Z,99927.56
2023-03-13T01:15:42.042Z,99915.03
2023-03-13T01:18:29.791Z,99900.50
2023-03-13T01:21:08.446Z,99892.63
2023-03-13T01:23:56.764Z,99888.28
2023-03-13T01:26:46.725Z,99894.13
2023-03-13T01:29:33.063Z,99894.59
2023-03-13T01:32:10.689Z,99893.00
2023-03-13T01:34:59.448Z,99889.81
2023-03-13T01:37:43.529Z,99888.81
2023-03-13T01:40:28.095Z,99882.59
2023-03-13T01:43:38.606Z,99889.09
2023-03-13T01:46:25.783Z,99883.75
2023-03-13T01:49:22.435Z,99888.41
2023-03-13T01:52:29.910Z,99895.63
2023-03-13T01:55:26.699Z,99885.59
2023-03-13T01:58:21.581Z,99873.72
2023-03-13T02:01:12.394Z,99877.78
2023-03-13T02:03:55.951Z,99877.41
2023-03-13T02:06:41.945Z,99882.34
2023-03-13T02:09:25.315Z,99875.50
2023-03-13T02:12:16.739Z,99876.78
2023-03-13T02:15:03.132Z,99876.00
2023-03-13T02:17:46.832Z,99864.28
2023-03-13T02:20:28.238Z,99865.97
2023-03-13T02:23:26.820Z,99865.47
2023-03-13T02:26:06.550Z,99860.34
2023-03-13T02:29:01.637Z,99859.53
2023-03-13T02:31:49.521Z,99866.31
2023-03-13T02:34:35.956Z,99862.75
2023-03-13T02:37:23.100Z,99856.94
2023-03-13T02:40:04.759Z,99856.78
2023-03-13T02:42:47.306Z,99856.88
2023-03-13T02:45:40.762Z,99854.50
2023-03-13T02:48:29.445Z,99857.97
2023-03-13T02:51:11.724Z,99857.13
2023-03-13T02:54:06.082Z,99850.75
2023-03-13T02:56:53.188Z,99855.28
2023-03-13T02:59:29.713Z,99865.41
2023-03-13T03:02:16.492Z,99859.09
2023-03-13T03:05:08.615Z,99861.59
2023-03-13T03:07:56.053Z,99880.50
2023-03-13T03:10:47.910Z,99884.50
2023-03-13T03:13:36.658Z,99890.47
2023-03-13T03:16:29.393Z,99891.34
2023-03-13T03:19:11.790Z,99880.63
2023-03-13T03:21:57.459Z,99880.63
2023-03-13T03:24:38.537Z,99878.41
2023-03-13T03:27:27.416Z,99882.75
2023-03-13T03:30:09.452Z,99874.72
2023-03-13T03:32:51.963Z,99865.75
2023-03-13T03:35:37.315Z,99869.78
2023-03-13T03:38:24.033Z,99868.72
2023-03-13T03:41:14.613Z,99869.06
2023-03-13T03:43:53.124Z,99865.03
2023-03-13T03:46:37.555Z,99869.06
2023-03-13T03:49:19.224Z,99876.94
2023-03-13T03:52:02.732Z,99855.69
2023-03-13T03:54:51.132Z,99860.75
2023-03-13T03:57:35.894Z,99867.66
2023-03-13T04:00:26.960Z,99883.91
2023-03-13T04:03:06.807Z,99897.59
2023-03-13T04:05:54.067Z,99906.81
2023-03-13T04:08:39.514Z,99902.97
2023-03-13T04:11:23.777Z,99908.50
2023-03-13T04:14:07.909Z,99928.53
2023-03-13T04:16:51.513Z,99937.44
2023-03-13T04:19:42.345Z,99935.78
2023-03-13T04:22:24.805Z,99943.31
2023-03-13T04:25:11.000Z,99934.13
2023-03-13T04:27:55.704Z,99942.69
2023-03-13T04:30:40.121Z,99944.28
2023-03-13T04:33:37.062Z,99939.44
2023-03-13T04:36:58.693Z,99939.44
2023-03-13T04:39:50.831Z,99935.78
2023-03-13T04:42:52.496Z,99937.66
2023-03-13T04:46:00.073Z,99928.81
2023-03-13T04:49:03.682Z,99933.16
2023-03-13T04:52:02.715Z,99928.50
2023-03-13T04:55:06.695Z,99935.19
2023-03-13T04:58:10.756Z,99933.28
2023-03-13T05:01:15.025Z,99937.13
2023-03-13T05:04:23.335Z,99943.16
2023-03-13T05:07:15.180Z,99949.53
2023-03-13T05:10:05.902Z,99942.78
2023-03-13T05:13:00.951Z,99955.00
2023-03-13T05:15:51.437Z,99952.22
2023-03-13T05:18:46.868Z,99958.34
2023-03-13T05:21:41.180Z,99955.19
2023-03-13T05:24:45.938Z,99952.00
2023-03-13T05:27:37.539Z,99947.53
2023-03-13T05:30:45.752Z,99951.03
2023-03-13T05:33:58.806Z,99958.59
2023-03-13T05:36:55.674Z,99967.56
2023-03-13T05:39:48.280Z,99966.22
2023-03-13T05:42:38.644Z,99971.56
2023-03-13T05:45:33.674Z,99972.91
2023-03-13T05:48:48.352Z,99959.78
2023-03-13T05:51:47.520Z,99965.44
2023-03-13T05:54:35.330Z,99948.53
2023-03-13T05:57:44.182Z,99949.13
2023-03-13T06:00:35.582Z,99959.63
2023-03-13T06:03:42.171Z,99967.94
2023-03-13T06:06:31.382Z,99967.59
2023-03-13T06:10:03.380Z,99965.06
2023-03-13T06:13:10.692Z,99949.66
2023-03-13T06:16:16.424Z,99948.56
2023-03-13T06:19:02.098Z,99948.16
2023-03-13T06:21:43.228Z,99954.94
2023-03-13T06:24:28.217Z,99957.41
2023-03-13T06:27:08.973Z,99957.78
2023-03-13T06:29:45.159Z,99968.09
2023-03-13T06:32:23.779Z,99965.94
2023-03-13T06:34:59.273Z,99960.34
2023-03-13T06:37:41.671Z,99968.31
2023-03-13T06:40:19.402Z,99966.63
2023-03-13T06:42:57.659Z,99971.06
2023-03-13T06:45:46.070Z,99975.59
2023-03-13T06:48:35.075Z,99972.69
2023-03-13T06:51:26.672Z,99968.25
2023-03-13T06:54:14.190Z,99966.84
2023-03-13T06:56:59.981Z,99971.28
2023-03-13T06:59:45.872Z,99974.72
2023-03-13T07:02:35.118Z,99970.88
2023-03-13T07:05:13.170Z,99961.84
2023-03-13T07:07:59.980Z,99954.22
2023-03-13T07:10:48.651Z,99961.81
2023-03-13T07:13:32.634Z,99952.19
2023-03-13T07:16:14.282Z,99956.19
2023-03-13T07:18:49.604Z,99958.09
2023-03-13T07:21:35.384Z,99953.22
2023-03-13T07:24:19.018Z,99958.25
2023-03-13T07:27:17.477Z,99955.94
2023-03-13T07:29:56.200Z,99952.69
2023-03-13T07:32:43.178Z,99965.75
2023-03-13T07:35:21.715Z,99959.75
2023-03-13T07:38:06.747Z,99957.50
2023-03-13T07:40:56.395Z,99957.81
2023-03-13T07:43:45.933Z,99949.50
2023-03-13T07:46:34.260Z,99947.75
2023-03-13T07:49:19.483Z,99949.13
2023-03-13T07:52:03.233Z,99944.09
2023-03-13T07:54:38.764Z,99947.84
2023-03-13T07:57:19.894Z,99943.94
2023-03-13T08:00:00.446Z,99942.13
2023-03-13T08:02:42.278Z,99937.41
2023-03-13T08:05:33.528Z,99932.59
2023-03-13T08:08:09.439Z,99928.22
2023-03-13T08:10:54.738Z,99925.72
2023-03-13T08:13:42.177Z,99925.97
2023-03-13T08:16:34.281Z,99921.38
2023-03-13T08:19:13.772Z,99912.88
2023-03-13T08:21:58.536Z,99907.63
2023-03-13T08:24:44.905Z,99909.06
2023-03-13T08:27:24.968Z,99908.19
2023-03-13T08:30:08.176Z,99914.16
2023-03-13T08:32:49.732Z,99905.81
2023-03-13T08:35:31.038Z,99901.75
2023-03-13T08:38:09.689Z,99900.41
2023-03-13T08:40:52.747Z,99894.63
2023-03-13T08:43:41.248Z,99900.56
2023-03-13T08:46:21.730Z,99894.66
2023-03-13T08:49:08.662Z,99891.34
2023-03-13T08:51:47.107Z,99885.88
2023-03-13T08:54:35.014Z,99885.81
2023-03-13T08:57:22.622Z,99883.22
2023-03-13T09:00:01.541Z,99883.56
2023-03-13T09:02:54.851Z,99874.94
2023-03-13T09:05:54.590Z,99877.06
2023-03-13T09:08:58.005Z,99878.00
2023-03-13T09:11:41.774Z,99884.06
2023-03-13T09:14:18.393Z,99878.44
2023-03-13T09:17:01.716Z,99874.88
2023-03-13T09:19:59.764Z,99870.47
2023-03-13T09:22:42.636Z,99867.56
2023-03-13T09:25:27.678Z,99862.88
2023-03-13T09:28:12.372Z,99866.28
2023-03-13T09:31:11.779Z,99858.19
2023-03-13T09:33:50.331Z,99858.47
2023-03-13T09:36:43.060Z,99849.38
2023-03-13T09:39:30.410Z,99845.59
2023-03-13T09:42:21.457Z,99845.00
2023-03-13T09:45:10.388Z,99842.31
2023-03-13T09:47:51.529Z,99842.50
2023-03-13T09:50:39.524Z,99839.13
2023-03-13T09:53:41.556Z,99844.91
2023-03-13T09:56:34.645Z,99845.88
2023-03-13T09:59:43.737Z,99843.88
2023-03-13T10:02:41.662Z,99837.16
2023-03-13T10:05:27.400Z,99830.81
2023-03-13T10:08:33.279Z,99828.63
2023-03-13T10:11:38.853Z,99824.66
2023-03-13T10:14:58.367Z,99812.44
2023-03-13T10:17:51.670Z,99815.66
2023-03-13T10:20:48.664Z,99802.66
2023-03-13T10:23:30.185Z,99810.47
2023-03-13T10:26:17.835Z,99798.75
2023-03-13T10:29:01.388Z,99806.53
2023-03-13T10:31:41.907Z,99805.03
2023-03-13T10:34:22.020Z,99805.13
2023-03-13T10:37:22.329Z,99806.34
2023-03-13T10:40:23.352Z,99799.41
2023-03-13T10:43:22.686Z,99799.66
2023-03-13T10:46:03.986Z,99800.31
2023-03-13T10:48:47.263Z,99787.66
2023-03-13T10:51:36.728Z,99787.75
2023-03-13T10:54:37.832Z,99775.75
2023-03-13T10:57:41.052Z,99778.38
2023-03-13T11:00:39.892Z,99775.19
2023-03-13T11:03:33.370Z,99776.66
2023-03-13T11:06:28.545Z,99778.13
2023-03-13T11:09:14.674Z,99764.09
2023-03-13T11:12:11.553Z,99757.34
2023-03-13T11:15:03.924Z,99759.34
2023-03-13T11:18:04.204Z,99746.72
2023-03-13T11:20:46.100Z,99750.63
2023-03-13T11:23:38.540Z,99740.09
2023-03-13T11:26:38.786Z,99735.69
2023-03-13T11:29:32.972Z,99736.22
2023-03-13T11:32:14.713Z,99734.88
2023-03-13T11:35:01.951Z,99726.53
2023-03-13T11:38:00.243Z,99719.91
2023-03-13T11:40:57.201Z,99722.19
2023-03-13T11:44:08.518Z,99703.56
2023-03-13T11:47:09.453Z,99696.25
2023-03-13T11:50:19.822Z,99688.50
2023-03-13T11:53:39.528Z,99703.22
2023-03-13T11:56:30.230Z,99693.28
2023-03-13T11:59:36.369Z,99678.31
2023-03-13T12:02:15.520Z,99672.94
2023-03-13T12:05:14.019Z,99673.75
2023-03-13T12:08:02.792Z,99670.22
2023-03-13T12:11:14.660Z,99662.63
2023-03-13T12:14:06.644Z,99660.69
2023-03-13T12:17:06.859Z,99649.41
2023-03-13T12:19:58.551Z,99666.91
2023-03-13T12:23:10.669Z,99669.91
2023-03-13T12:25:54.922Z,99654.78
2023-03-13T12:28:58.339Z,99650.72
2023-03-13T12:32:02.765Z,99645.78
2023-03-13T12:34:56.138Z,99639.59
2023-03-13T12:38:05.573Z,99627.25
2023-03-13T12:41:05.732Z,99625.41
2023-03-13T12:44:08.868Z,99624.47
2023-03-13T12:47:06.019Z,99611.66
2023-03-13T12:50:42.328Z,99601.16
2023-03-13T12:53:48.361Z,99590.75
2023-03-13T12:56:57.880Z,99593.34
2023-03-13T13:00:06.082Z,99585.41
2023-03-13T13:02:49.186Z,99582.56
2023-03-13T13:05:30.672Z,99581.69
2023-03-13T13:08:34.800Z,99582.50
2023-03-13T13:11:37.850Z,99583.97
2023-03-13T13:15:00.672Z,99589.41
2023-03-13T13:18:16.317Z,99577.19
2023-03-13T13:21:26.418Z,99575.09
2023-03-13T13:24:18.795Z,99578.00
2023-03-13T13:27:08.094Z,99565.44
2023-03-13T13:29:55.763Z,99560.06
2023-03-13T13:32:46.912Z,99557.72
2023-03-13T13:35:37.626Z,99555.00
2023-03-13T13:38:51.750Z,99552.91
2023-03-13T13:41:45.247Z,99555.25
2023-03-13T13:44:35.562Z,99545.91
2023-03-13T13:47:33.904Z,99544.41
2023-03-13T13:50:34.415Z,99541.03
2023-03-13T13:53:50.279Z,99539.97
2023-03-13T13:56:42.345Z,99527.78
2023-03-13T13:59:55.382Z,99506.09
2023-03-13T14:03:02.905Z,99506.13
2023-03-13T14:05:49.291Z,99514.31
2023-03-13T14:08:44.577Z,99507.63
2023-03-13T14:12:00.821Z,99509.03
2023-03-13T14:14:54.531Z,99506.28
2023-03-13T14:18:01.789Z,99505.56
2023-03-13T14:21:01.158Z,99505.47
2023-03-13T14:23:46.704Z,99499.81
2023-03-13T14:26:34.676Z,99501.66
2023-03-13T14:29:20.828Z,99508.13
2023-03-13T14:32:07.313Z,99509.38
2023-03-13T14:34:48.463Z,99513.38
2023-03-13T14:38:06.678Z,99503.56
2023-03-13T14:40:48.739Z,99504.53
2023-03-13T14:43:46.978Z,99501.28
2023-03-13T14:46:32.080Z,99490.56
2023-03-13T14:49:21.588Z,99488.50
2023-03-13T14:52:25.755Z,99499.88
2023-03-13T14:55:27.732Z,99491.28
2023-03-13T14:58:33.807Z,99488.00
2023-03-13T15:01:33.859Z,99488.34
2023-03-13T15:04:14.743Z,99484.28
2023-03-13T15:07:14.162Z,99479.84
2023-03-13T15:10:06.335Z,99480.88
2023-03-13T15:12:48.640Z,99483.56
2023-03-13T15:15:34.153Z,99472.59
2023-03-13T15:18:35.501Z,99467.56
2023-03-13T15:21:30.005Z,99470.75
2023-03-13T15:24:18.363Z,99458.91
2023-03-13T15:26:59.520Z,99459.00
2023-03-13T15:29:46.754Z,99446.47
2023-03-13T15:32:37.230Z,99442.22
2023-03-13T15:35:30.491Z,99436.34
2023-03-13T15:38:22.722Z,99439.69
2023-03-13T15:41:21.152Z,99445.78
2023-03-13T15:44:13.392Z,99438.38
2023-03-13T15:47:06.383Z,99436.84
2023-03-13T15:49:47.269Z,99429.59
2023-03-13T15:52:38.009Z,99424.28
2023-03-13T15:55:20.175Z,99426.34
2023-03-13T15:58:07.784Z,99426.78
2023-03-13T16:00:52.312Z,99421.06
2023-03-13T16:03:43.439Z,99411.72
2023-03-13T16:06:32.914Z,99411.88
2023-03-13T16:09:23.550Z,99408.19
2023-03-13T16:12:09.743Z,99397.47
2023-03-13T16:14:51.791Z,99411.72
2023-03-13T16:17:33.605Z,99418.53
2023-03-13T16:20:29.031Z,99417.72
2023-03-13T16:23:24.097Z,99415.44
2023-03-13T16:26:08.759Z,99423.56
2023-03-13T16:28:52.209Z,99410.31
2023-03-13T16:31:39.451Z,99409.94
2023-03-13T16:34:18.509Z,99408.59
2023-03-13T16:37:12.733Z,99412.19
2023-03-13T16:40:02.871Z,99412.94
2023-03-13T16:42:50.728Z,99406.84
2023-03-13T16:45:34.083Z,99413.66
2023-03-13T16:48:25.141Z,99411.78
2023-03-13T16:51:11.725Z,99413.09
2023-03-13T16:53:53.544Z,99420.72
2023-03-13T16:56:47.442Z,99415.38
2023-03-13T16:59:31.685Z,99429.00
2023-03-13T17:02:22.642Z,99431.09
2023-03-13T17:05:10.090Z,99427.28
2023-03-13T17:07:47.498Z,99436.75
2023-03-13T17:10:28.921Z,99422.59
2023-03-13T17:13:20.728Z,99410.88
2023-03-13T17:16:19.296Z,99410.69
2023-03-13T17:19:12.522Z,99409.38
2023-03-13T17:22:12.158Z,99415.31
2023-03-13T17:24:58.447Z,99418.72
2023-03-13T17:27:39.065Z,99416.41
2023-03-13T17:30:40.267Z,99422.34
2023-03-13T17:33:26.100Z,99414.88
2023-03-13T17:36:14.625Z,99405.75
2023-03-13T17:39:04.833Z,99400.38
2023-03-13T17:41:56.198Z,99401.94
2023-03-13T17:44:43.785Z,99404.63
2023-03-13T17:47:26.525Z,99400.53
2023-03-13T17:50:08.496Z,99392.13
2023-03-13T17:52:50.450Z,99387.47
2023-03-13T17:55:28.200Z,99398.31
2023-03-13T17:58:11.898Z,99399.72
2023-03-13T18:01:00.986Z,99402.06
2023-03-13T18:03:47.882Z,99396.91
2023-03-13T18:06:43.686Z,99393.84
2023-03-13T18:09:27.959Z,99402.31
2023-03-13T18:12:17.721Z,99395.25
2023-03-13T18:14:59.643Z,99387.84
2023-03-13T18:17:47.687Z,99389.13
2023-03-13T18:20:45.271Z,99388.44
2023-03-13T18:23:25.766Z,99380.78
2023-03-13T18:26:41.592Z,99378.56
2023-03-13T18:29:40.579Z,99386.19
2023-03-13T18:32:32.229Z,99389.22
2023-03-13T18:35:13.965Z,99379.22
2023-03-13T18:37:52.000Z,99377.69
2023-03-13T18:40:46.090Z,99373.69
2023-03-13T18:43:30.664Z,99373.91
2023-03-13T18:46:17.573Z,99370.94
2023-03-13T18:49:08.151Z,99373.06
2023-03-13T18:51:55.204Z,99377.00
2023-03-13T18:54:46.137Z,99370.91
2023-03-13T18:57:44.957Z,99367.84
2023-03-13T19:00:32.734Z,99372.97
2023-03-13T19:03:27.743Z,99362.25
2023-03-13T19:06:19.404Z,99369.53
2023-03-13T19:09:37.699Z,99363.88
2023-03-13T19:12:23.449Z,99355.66
2023-03-13T19:15:12.751Z,99339.31
2023-03-13T19:18:04.308Z,99333.69
2023-03-13T19:20:49.991Z,99324.53
2023-03-13T19:23:39.592Z,99317.34
2023-03-13T19:26:19.871Z,99316.44
2023-03-13T19:29:01.161Z,99314.34
2023-03-13T19:31:55.980Z,99315.75
2023-03-13T19:34:43.713Z,99317.16
2023-03-13T19:37:27.988Z,99315.50
2023-03-13T19:40:28.798Z,99313.94
2023-03-13T19:43:14.921Z,99313.66
2023-03-13T19:46:00.952Z,99309.00
2023-03-13T19:48:55.021Z,99299.81
2023-03-13T19:51:37.174Z,99300.59
2023-03-13T19:54:20.739Z,99298.09
2023-03-13T19:57:04.977Z,99297.75
2023-03-13T19:59:57.670Z,99305.06
2023-03-13T20:02:40.415Z,99304.25
2023-03-13T20:05:18.705Z,99297.44
2023-03-13T20:08:08.125Z,99300.31
2023-03-13T20:11:11.304Z,99309.97
2023-03-13T20:14:02.517Z,99317.25
2023-03-13T20:16:45.861Z,99311.53
2023-03-13T20:19:56.485Z,99321.97
2023-03-13T20:22:41.223Z,99312.31
2023-03-13T20:25:25.700Z,99315.06
2023-03-13T20:28:12.600Z,99316.78
2023-03-13T20:30:57.339Z,99314.59
2023-03-13T20:33:44.306Z,99306.72
2023-03-13T20:36:33.386Z,99304.09
2023-03-13T20:39:13.799Z,99311.53
2023-03-13T20:42:03.277Z,99307.16
2023-03-13T20:44:52.796Z,99304.72
2023-03-13T20:47:41.355Z,99301.47
2023-03-13T20:50:25.352Z,99285.53
2023-03-13T20:53:06.011Z,99280.47
2023-03-13T20:55:52.629Z,99270.06
2023-03-13T20:58:34.407Z,99265.13
2023-03-13T21:01:19.253Z,99258.16
2023-03-13T21:04:06.661Z,99256.50
2023-03-13T21:06:53.677Z,99241.59
2023-03-13T21:09:34.773Z,99239.91
2023-03-13T21:12:18.157Z,99230.22
2023-03-13T21:15:05.025Z,99218.47
2023-03-13T21:17:46.858Z,99217.47
2023-03-13T21:20:31.895Z,99201.38
2023-03-13T21:23:09.583Z,99198.09
2023-03-13T21:26:05.553Z,99197.56
2023-03-13T21:28:53.721Z,99198.03
2023-03-13T21:31:38.885Z,99185.03
2023-03-13T21:34:24.717Z,99177.66
2023-03-13T21:37:06.111Z,99171.19
2023-03-13T21:39:52.774Z,99165.44
2023-03-13T21:42:43.650Z,99173.13
2023-03-13T21:45:28.670Z,99170.88
2023-03-13T21:48:23.675Z,99163.88
2023-03-13T21:51:07.411Z,99169.03
2023-03-13T21:53:53.067Z,99170.16
2023-03-13T21:56:33.831Z,99150.53
2023-03-13T21:59:29.070Z,99155.13
2023-03-13T22:02:16.439Z,99154.31
2023-03-13T22:05:00.003Z,99154.69
2023-03-13T22:07:45.402Z,99155.56
2023-03-13T22:10:31.551Z,99158.09
2023-03-13T22:13:15.330Z,99151.09
2023-03-13T22:15:59.145Z,99142.84
2023-03-13T22:18:45.632Z,99137.97
2023-03-13T22:21:32.696Z,99141.91
2023-03-13T22:24:16.671Z,99140.47
2023-03-13T22:26:56.026Z,99129.63
2023-03-13T22:29:50.384Z,99125.19
2023-03-13T22:32:38.746Z,99123.81
2023-03-13T22:35:15.440Z,99122.28
2023-03-13T22:37:56.099Z,99118.19
2023-03-13T22:40:37.674Z,99120.44
2023-03-13T22:43:17.964Z,99112.78
2023-03-13T22:46:07.621Z,99103.56
2023-03-13T22:48:56.855Z,99096.69
2023-03-13T22:51:44.765Z,99083.25
2023-03-13T22:54:26.018Z,99089.31
2023-03-13T22:57:13.645Z,99085.00
2023-03-13T22:59:58.690Z,99092.69
2023-03-13T23:02:40.104Z,99093.25
2023-03-13T23:05:20.323Z,99089.81
2023-03-13T23:08:02.375Z,99084.28
2023-03-13T23:10:47.768Z,99075.19
2023-03-13T23:13:38.158Z,99073.50
2023-03-13T23:16:25.667Z,99059.50
2023-03-13T23:19:04.371Z,99063.63
2023-03-13T23:21:42.677Z,99061.75
2023-03-13T23:24:29.379Z,99072.06
2023-03-13T23:27:13.619Z,99050.00
2023-03-13T23:29:49.109Z,99048.81
2023-03-13T23:32:35.819Z,99055.00
2023-03-13T23:35:17.129Z,99057.94
2023-03-13T23:38:06.599Z,99058.91
2023-03-13T23:40:52.995Z,99056.44
2023-03-13T23:43:42.414Z,99058.28
2023-03-13T23:46:31.224Z,99057.03
2023-03-13T23:49:22.749Z,99057.84
2023-03-13T23:52:12.042Z,99047.66
2023-03-13T23:54:55.967Z,99052.66
2023-03-13T23:57:39.741Z,99042.38
